sensor_id;sensor_type;location;lat;lon;timestamp;pressure;altitude;pressure_sealevel;temperature;humidity
15914;BME280;8055;51.930;8.840;2023-06-22T00:01:15;75336.38;;;-145.72;100.00
15914;BME280;8055;51.930;8.840;2023-06-22T00:03:40;75348.78;;;-145.72;100.00
15914;BME280;8055;51.930;8.840;2023-06-22T00:06:06;75336.38;;;-145.72;100.00
15914;BME280;8055;51.930;8.840;2023-06-22T00:08:31;75348.78;;;-145.72;100.00
15914;BME280;8055;51.930;8.840;2023-06-22T00:10:57;75350.88;;;-145.72;100.00
15914;BME280;8055;51.930;8.840;2023-06-22T00:13:22;75357.06;;;-145.72;100.00
15914;BME280;8055;51.930;8.840;2023-06-22T00:15:47;75350.88;;;-145.72;100.00
15914;BME280;8055;51.930;8.840;2023-06-22T00:18:13;75338.44;;;-145.72;100.00
15914;BME280;8055;51.930;8.840;2023-06-22T00:20:39;75342.59;;;-145.72;100.00
15914;BME280;8055;51.930;8.840;2023-06-22T00:23:06;75332.25;;;-145.72;100.00
15914;BME280;8055;51.930;8.840;2023-06-22T00:25:40;75332.25;;;-145.72;100.00
15914;BME280;8055;51.930;8.840;2023-06-22T00:28:06;75334.31;;;-145.72;100.00
15914;BME280;8055;51.930;8.840;2023-06-22T00:30:33;75336.38;;;-145.72;100.00
15914;BME280;8055;51.930;8.840;2023-06-22T00:32:59;75326.03;;;-145.72;100.00
15914;BME280;8055;51.930;8.840;2023-06-22T00:35:24;75332.25;;;-145.72;100.00
15914;BME280;8055;51.930;8.840;2023-06-22T00:37:58;75336.38;;;-145.72;100.00
15914;BME280;8055;51.930;8.840;2023-06-22T00:40:28;75323.97;;;-145.72;100.00
15914;BME280;8055;51.930;8.840;2023-06-22T00:42:54;75328.09;;;-145.72;100.00
15914;BME280;8055;51.930;8.840;2023-06-22T00:45:20;75319.81;;;-145.72;100.00
15914;BME280;8055;51.930;8.840;2023-06-22T00:47:48;75309.47;;;-145.72;100.00
15914;BME280;8055;51.930;8.840;2023-06-22T00:50:18;75303.28;;;-145.72;100.00
15914;BME280;8055;51.930;8.840;2023-06-22T00:52:46;75280.50;;;-145.72;100.00
15914;BME280;8055;51.930;8.840;2023-06-22T00:55:12;75301.19;;;-145.72;100.00
15914;BME280;8055;51.930;8.840;2023-06-22T00:57:37;75309.47;;;-145.72;100.00
15914;BME280;8055;51.930;8.840;2023-06-22T01:00:03;75305.34;;;-145.72;100.00
15914;BME280;8055;51.930;8.840;2023-06-22T01:02:33;75317.75;;;-145.72;100.00
15914;BME280;8055;51.930;8.840;2023-06-22T01:04:59;75315.69;;;-145.72;100.00
15914;BME280;8055;51.930;8.840;2023-06-22T01:07:39;75307.41;;;-145.72;100.00
15914;BME280;8055;51.930;8.840;2023-06-22T01:10:16;75299.13;;;-145.72;100.00
15914;BME280;8055;51.930;8.840;2023-06-22T01:12:50;75297.06;;;-145.72;100.00
15914;BME280;8055;51.930;8.840;2023-06-22T01:15:36;75307.41;;;-145.72;100.00
15914;BME280;8055;51.930;8.840;2023-06-22T01:18:04;75305.34;;;-145.72;100.00
15914;BME280;8055;51.930;8.840;2023-06-22T01:20:32;75307.41;;;-145.72;100.00
15914;BME280;8055;51.930;8.840;2023-06-22T01:23:05;75297.06;;;-145.72;100.00
15914;BME280;8055;51.930;8.840;2023-06-22T01:25:37;75282.59;;;-145.72;100.00
15914;BME280;8055;51.930;8.840;2023-06-22T01:28:23;75288.78;;;-145.72;100.00
15914;BME280;8055;51.930;8.840;2023-06-22T01:30:51;75299.13;;;-145.72;100.00
15914;BME280;8055;51.930;8.840;2023-06-22T01:33:29;75301.19;;;-145.72;100.00
15914;BME280;8055;51.930;8.840;2023-06-22T01:35:56;75307.41;;;-145.72;100.00
15914;BME280;8055;51.930;8.840;2023-06-22T01:38:21;75307.41;;;-145.72;100.00
15914;BME280;8055;51.930;8.840;2023-06-22T01:40:48;75307.41;;;-145.72;100.00
15914;BME280;8055;51.930;8.840;2023-06-22T01:43:15;75313.63;;;-145.72;100.00
15914;BME280;8055;51.930;8.840;2023-06-22T01:45:41;75311.56;;;-145.72;100.00
15914;BME280;8055;51.930;8.840;2023-06-22T01:48:07;75315.69;;;-145.72;100.00
15914;BME280;8055;51.930;8.840;2023-06-22T01:50:33;75323.97;;;-145.72;100.00
15914;BME280;8055;51.930;8.840;2023-06-22T01:52:58;75336.38;;;-145.72;100.00
15914;BME280;8055;51.930;8.840;2023-06-22T01:55:23;75336.38;;;-145.72;100.00
15914;BME280;8055;51.930;8.840;2023-06-22T01:57:49;75344.66;;;-145.72;100.00
15914;BME280;8055;51.930;8.840;2023-06-22T02:00:18;75344.66;;;-145.72;100.00
15914;BME280;8055;51.930;8.840;2023-06-22T02:03:03;75340.50;;;-145.72;100.00
15914;BME280;8055;51.930;8.840;2023-06-22T02:05:34;75344.66;;;-145.72;100.00
15914;BME280;8055;51.930;8.840;2023-06-22T02:08:09;75336.38;;;-145.72;100.00
15914;BME280;8055;51.930;8.840;2023-06-22T02:10:37;75328.09;;;-145.72;100.00
15914;BME280;8055;51.930;8.840;2023-06-22T02:13:06;75340.50;;;-145.72;100.00
15914;BME280;8055;51.930;8.840;2023-06-22T02:15:32;75350.88;;;-145.72;100.00
15914;BME280;8055;51.930;8.840;2023-06-22T02:17:57;75340.50;;;-145.72;100.00
15914;BME280;8055;51.930;8.840;2023-06-22T02:20:23;75346.72;;;-145.72;100.00
15914;BME280;8055;51.930;8.840;2023-06-22T02:22:49;75348.78;;;-145.72;100.00
15914;BME280;8055;51.930;8.840;2023-06-22T02:25:14;75336.38;;;-145.72;100.00
15914;BME280;8055;51.930;8.840;2023-06-22T02:27:40;75328.09;;;-145.72;100.00
15914;BME280;8055;51.930;8.840;2023-06-22T02:30:08;75342.59;;;-145.72;100.00
15914;BME280;8055;51.930;8.840;2023-06-22T02:32:34;75340.50;;;-145.72;100.00
15914;BME280;8055;51.930;8.840;2023-06-22T02:35:00;75348.78;;;-145.72;100.00
15914;BME280;8055;51.930;8.840;2023-06-22T02:37:29;75344.66;;;-145.72;100.00
15914;BME280;8055;51.930;8.840;2023-06-22T02:39:54;75355.00;;;-145.72;100.00
15914;BME280;8055;51.930;8.840;2023-06-22T02:42:20;75355.00;;;-145.72;100.00
15914;BME280;8055;51.930;8.840;2023-06-22T02:44:47;75344.66;;;-145.72;100.00
15914;BME280;8055;51.930;8.840;2023-06-22T02:47:12;75350.88;;;-145.72;100.00
15914;BME280;8055;51.930;8.840;2023-06-22T02:49:37;75346.72;;;-145.72;100.00
15914;BME280;8055;51.930;8.840;2023-06-22T02:52:03;75350.88;;;-145.72;100.00
15914;BME280;8055;51.930;8.840;2023-06-22T02:54:28;75357.06;;;-145.72;100.00
15914;BME280;8055;51.930;8.840;2023-06-22T02:56:54;75359.13;;;-145.72;100.00
15914;BME280;8055;51.930;8.840;2023-06-22T02:59:19;75348.78;;;-145.72;100.00
15914;BME280;8055;51.930;8.840;2023-06-22T03:01:49;75357.06;;;-145.72;100.00
15914;BME280;8055;51.930;8.840;2023-06-22T03:04:15;75355.00;;;-145.72;100.00
15914;BME280;8055;51.930;8.840;2023-06-22T03:06:41;75359.13;;;-145.72;100.00
15914;BME280;8055;51.930;8.840;2023-06-22T03:09:07;75363.28;;;-145.72;100.00
15914;BME280;8055;51.930;8.840;2023-06-22T03:11:34;75357.06;;;-145.72;100.00
15914;BME280;8055;51.930;8.840;2023-06-22T03:14:00;75355.00;;;-145.72;100.00
15914;BME280;8055;51.930;8.840;2023-06-22T03:16:26;75359.13;;;-145.72;100.00
15914;BME280;8055;51.930;8.840;2023-06-22T03:18:52;75357.06;;;-145.72;100.00
15914;BME280;8055;51.930;8.840;2023-06-22T03:21:19;75357.06;;;-145.72;100.00
15914;BME280;8055;51.930;8.840;2023-06-22T03:23:44;75352.94;;;-145.72;100.00
15914;BME280;8055;51.930;8.840;2023-06-22T03:26:10;75357.06;;;-145.72;100.00
15914;BME280;8055;51.930;8.840;2023-06-22T03:28:36;75348.78;;;-145.72;100.00
15914;BME280;8055;51.930;8.840;2023-06-22T03:31:03;75344.66;;;-145.72;100.00
15914;BME280;8055;51.930;8.840;2023-06-22T03:33:28;75340.50;;;-145.72;100.00
15914;BME280;8055;51.930;8.840;2023-06-22T03:35:54;75342.59;;;-145.72;100.00
15914;BME280;8055;51.930;8.840;2023-06-22T03:38:20;75338.44;;;-145.72;100.00
15914;BME280;8055;51.930;8.840;2023-06-22T03:40:45;75334.31;;;-145.72;100.00
15914;BME280;8055;51.930;8.840;2023-06-22T03:43:11;75328.09;;;-145.72;100.00
15914;BME280;8055;51.930;8.840;2023-06-22T03:45:36;75332.25;;;-145.72;100.00
15914;BME280;8055;51.930;8.840;2023-06-22T03:48:02;75336.38;;;-145.72;100.00
15914;BME280;8055;51.930;8.840;2023-06-22T03:50:27;75342.59;;;-145.72;100.00
15914;BME280;8055;51.930;8.840;2023-06-22T03:52:53;75342.59;;;-145.72;100.00
15914;BME280;8055;51.930;8.840;2023-06-22T03:55:21;75338.44;;;-145.72;100.00
15914;BME280;8055;51.930;8.840;2023-06-22T03:57:47;75342.59;;;-145.72;100.00
15914;BME280;8055;51.930;8.840;2023-06-22T04:00:13;75344.66;;;-145.72;100.00
15914;BME280;8055;51.930;8.840;2023-06-22T04:02:40;75352.94;;;-145.72;100.00
15914;BME280;8055;51.930;8.840;2023-06-22T04:05:06;75348.78;;;-145.72;100.00
15914;BME280;8055;51.930;8.840;2023-06-22T04:07:31;75348.78;;;-145.72;100.00
15914;BME280;8055;51.930;8.840;2023-06-22T04:09:56;75346.72;;;-145.72;100.00
15914;BME280;8055;51.930;8.840;2023-06-22T04:12:22;75352.94;;;-145.72;100.00
15914;BME280;8055;51.930;8.840;2023-06-22T04:14:47;75359.13;;;-145.72;100.00
15914;BME280;8055;51.930;8.840;2023-06-22T04:17:13;75342.59;;;-145.72;100.00
15914;BME280;8055;51.930;8.840;2023-06-22T04:19:40;75344.66;;;-145.72;100.00
15914;BME280;8055;51.930;8.840;2023-06-22T04:22:06;75338.44;;;-145.72;100.00
15914;BME280;8055;51.930;8.840;2023-06-22T04:24:35;75332.25;;;-145.72;100.00
15914;BME280;8055;51.930;8.840;2023-06-22T04:27:00;75328.09;;;-145.72;100.00
15914;BME280;8055;51.930;8.840;2023-06-22T04:29:28;75303.28;;;-145.72;100.00
15914;BME280;8055;51.930;8.840;2023-06-22T04:31:58;75282.59;;;-145.72;100.00
15914;BME280;8055;51.930;8.840;2023-06-22T04:34:24;75274.31;;;-145.72;100.00
15914;BME280;8055;51.930;8.840;2023-06-22T04:36:53;75268.09;;;-145.72;100.00
15914;BME280;8055;51.930;8.840;2023-06-22T04:39:18;75259.81;;;-145.72;100.00
15914;BME280;8055;51.930;8.840;2023-06-22T04:41:44;75263.97;;;-145.72;100.00
15914;BME280;8055;51.930;8.840;2023-06-22T04:44:16;75266.03;;;-145.72;100.00
15914;BME280;8055;51.930;8.840;2023-06-22T04:46:59;75259.81;;;-145.72;100.00
15914;BME280;8055;51.930;8.840;2023-06-22T04:49:34;75261.91;;;-145.72;100.00
15914;BME280;8055;51.930;8.840;2023-06-22T04:52:07;75243.28;;;-145.72;100.00
15914;BME280;8055;51.930;8.840;2023-06-22T04:54:34;75237.06;;;-145.72;100.00
15914;BME280;8055;51.930;8.840;2023-06-22T04:57:05;75228.78;;;-145.72;100.00
15914;BME280;8055;51.930;8.840;2023-06-22T04:59:35;75226.72;;;-145.72;100.00
15914;BME280;8055;51.930;8.840;2023-06-22T05:02:01;75226.72;;;-145.72;100.00
15914;BME280;8055;51.930;8.840;2023-06-22T05:04:29;75220.50;;;-145.72;100.00
15914;BME280;8055;51.930;8.840;2023-06-22T05:06:59;75228.78;;;-145.72;100.00
15914;BME280;8055;51.930;8.840;2023-06-22T05:09:25;75218.44;;;-145.72;100.00
15914;BME280;8055;51.930;8.840;2023-06-22T05:11:51;75212.25;;;-145.72;100.00
15914;BME280;8055;51.930;8.840;2023-06-22T05:14:17;75218.44;;;-145.72;100.00
15914;BME280;8055;51.930;8.840;2023-06-22T05:16:43;75228.78;;;-145.72;100.00
15914;BME280;8055;51.930;8.840;2023-06-22T05:19:09;75212.25;;;-145.72;100.00
15914;BME280;8055;51.930;8.840;2023-06-22T05:21:35;75203.97;;;-145.72;100.00
15914;BME280;8055;51.930;8.840;2023-06-22T05:24:00;75195.69;;;-145.72;100.00
15914;BME280;8055;51.930;8.840;2023-06-22T05:26:28;75191.56;;;-145.72;100.00
15914;BME280;8055;51.930;8.840;2023-06-22T05:28:54;75189.47;;;-145.72;100.00
15914;BME280;8055;51.930;8.840;2023-06-22T05:31:19;75187.41;;;-145.72;100.00
15914;BME280;8055;51.930;8.840;2023-06-22T05:33:46;75193.63;;;-145.72;100.00
15914;BME280;8055;51.930;8.840;2023-06-22T05:36:12;75179.13;;;-145.72;100.00
15914;BME280;8055;51.930;8.840;2023-06-22T05:38:41;75177.06;;;-145.72;100.00
15914;BME280;8055;51.930;8.840;2023-06-22T05:41:07;75162.59;;;-145.72;100.00
15914;BME280;8055;51.930;8.840;2023-06-22T05:43:33;75172.94;;;-145.72;100.00
15914;BME280;8055;51.930;8.840;2023-06-22T05:45:59;75152.25;;;-145.72;100.00
15914;BME280;8055;51.930;8.840;2023-06-22T05:48:26;75146.03;;;-145.72;100.00
15914;BME280;8055;51.930;8.840;2023-06-22T05:50:52;75133.63;;;-145.72;100.00
15914;BME280;8055;51.930;8.840;2023-06-22T05:53:18;75117.06;;;-145.72;100.00
15914;BME280;8055;51.930;8.840;2023-06-22T05:55:43;75115.00;;;-145.72;100.00
15914;BME280;8055;51.930;8.840;2023-06-22T05:58:08;75092.25;;;-145.72;100.00
15914;BME280;8055;51.930;8.840;2023-06-22T06:00:34;75088.09;;;-145.72;100.00
15914;BME280;8055;51.930;8.840;2023-06-22T06:03:00;75075.69;;;-145.72;100.00
15914;BME280;8055;51.930;8.840;2023-06-22T06:05:35;75067.41;;;-145.72;100.00
15914;BME280;8055;51.930;8.840;2023-06-22T06:08:02;75052.94;;;-145.72;100.00
15914;BME280;8055;51.930;8.840;2023-06-22T06:10:30;75038.44;;;-145.72;100.00
15914;BME280;8055;51.930;8.840;2023-06-22T06:12:56;75026.03;;;-145.72;100.00
15914;BME280;8055;51.930;8.840;2023-06-22T06:15:21;75023.97;;;-145.72;100.00
15914;BME280;8055;51.930;8.840;2023-06-22T06:17:52;75021.91;;;-145.72;100.00
15914;BME280;8055;51.930;8.840;2023-06-22T06:20:19;75005.34;;;-145.72;100.00
15914;BME280;8055;51.930;8.840;2023-06-22T06:22:45;74992.94;;;-145.72;100.00
15914;BME280;8055;51.930;8.840;2023-06-22T06:25:10;74990.88;;;-145.72;100.00
15914;BME280;8055;51.930;8.840;2023-06-22T06:27:45;74980.53;;;-145.72;100.00
15914;BME280;8055;51.930;8.840;2023-06-22T06:30:11;74976.38;;;-145.72;100.00
15914;BME280;8055;51.930;8.840;2023-06-22T06:32:37;74968.13;;;-145.72;100.00
15914;BME280;8055;51.930;8.840;2023-06-22T06:35:08;74957.78;;;-145.72;100.00
15914;BME280;8055;51.930;8.840;2023-06-22T06:37:41;74949.50;;;-145.72;100.00
15914;BME280;8055;51.930;8.840;2023-06-22T06:40:08;74937.06;;;-145.72;100.00
15914;BME280;8055;51.930;8.840;2023-06-22T06:42:36;74945.34;;;-145.72;100.00
15914;BME280;8055;51.930;8.840;2023-06-22T06:45:04;74941.22;;;-145.72;100.00
15914;BME280;8055;51.930;8.840;2023-06-22T06:47:30;74939.16;;;-145.72;100.00
15914;BME280;8055;51.930;8.840;2023-06-22T06:49:55;74930.88;;;-145.72;100.00
15914;BME280;8055;51.930;8.840;2023-06-22T06:52:20;74930.88;;;-145.72;100.00
15914;BME280;8055;51.930;8.840;2023-06-22T06:54:46;74926.72;;;-145.72;100.00
15914;BME280;8055;51.930;8.840;2023-06-22T06:57:11;74924.66;;;-145.72;100.00
15914;BME280;8055;51.930;8.840;2023-06-22T06:59:38;74920.53;;;-145.72;100.00
15914;BME280;8055;51.930;8.840;2023-06-22T07:02:04;74918.47;;;-145.72;100.00
15914;BME280;8055;51.930;8.840;2023-06-22T07:04:30;74926.72;;;-145.72;100.00
15914;BME280;8055;51.930;8.840;2023-06-22T07:06:55;74922.59;;;-145.72;100.00
15914;BME280;8055;51.930;8.840;2023-06-22T07:09:21;74926.72;;;-145.72;100.00
15914;BME280;8055;51.930;8.840;2023-06-22T07:11:46;74924.66;;;-145.72;100.00
15914;BME280;8055;51.930;8.840;2023-06-22T07:14:11;74922.59;;;-145.72;100.00
15914;BME280;8055;51.930;8.840;2023-06-22T07:16:37;74926.72;;;-145.72;100.00
15914;BME280;8055;51.930;8.840;2023-06-22T07:19:02;74920.53;;;-145.72;100.00
15914;BME280;8055;51.930;8.840;2023-06-22T07:21:28;74922.59;;;-145.72;100.00
15914;BME280;8055;51.930;8.840;2023-06-22T07:23:53;74918.47;;;-145.72;100.00
15914;BME280;8055;51.930;8.840;2023-06-22T07:26:20;74922.59;;;-145.72;100.00
15914;BME280;8055;51.930;8.840;2023-06-22T07:28:45;74922.59;;;-145.72;100.00
15914;BME280;8055;51.930;8.840;2023-06-22T07:31:10;74926.72;;;-145.72;100.00
15914;BME280;8055;51.930;8.840;2023-06-22T07:33:36;74918.47;;;-145.72;100.00
15914;BME280;8055;51.930;8.840;2023-06-22T07:36:01;74918.47;;;-145.72;100.00
15914;BME280;8055;51.930;8.840;2023-06-22T07:38:28;74918.47;;;-145.72;100.00
15914;BME280;8055;51.930;8.840;2023-06-22T07:40:54;74908.13;;;-145.72;100.00
15914;BME280;8055;51.930;8.840;2023-06-22T07:43:19;74906.03;;;-145.72;100.00
15914;BME280;8055;51.930;8.840;2023-06-22T07:45:49;74908.13;;;-145.72;100.00
15914;BME280;8055;51.930;8.840;2023-06-22T07:48:20;74908.13;;;-145.72;100.00
15914;BME280;8055;51.930;8.840;2023-06-22T07:50:46;74893.63;;;-145.72;100.00
15914;BME280;8055;51.930;8.840;2023-06-22T07:53:11;74899.84;;;-145.72;100.00
15914;BME280;8055;51.930;8.840;2023-06-22T07:55:37;74901.91;;;-145.72;100.00
15914;BME280;8055;51.930;8.840;2023-06-22T07:58:02;74901.91;;;-145.72;100.00
15914;BME280;8055;51.930;8.840;2023-06-22T08:00:27;74901.91;;;-145.72;100.00
15914;BME280;8055;51.930;8.840;2023-06-22T08:02:53;74893.63;;;-145.72;100.00
15914;BME280;8055;51.930;8.840;2023-06-22T08:05:18;74883.28;;;-145.72;100.00
15914;BME280;8055;51.930;8.840;2023-06-22T08:07:44;74883.28;;;-145.72;100.00
15914;BME280;8055;51.930;8.840;2023-06-22T08:10:13;74885.34;;;-145.72;100.00
15914;BME280;8055;51.930;8.840;2023-06-22T08:12:40;74881.22;;;-145.72;100.00
15914;BME280;8055;51.930;8.840;2023-06-22T08:15:06;74893.63;;;-145.72;100.00
15914;BME280;8055;51.930;8.840;2023-06-22T08:17:32;74889.50;;;-145.72;100.00
15914;BME280;8055;51.930;8.840;2023-06-22T08:19:58;74889.50;;;-145.72;100.00
15914;BME280;8055;51.930;8.840;2023-06-22T08:22:23;74903.97;;;-145.72;100.00
15914;BME280;8055;51.930;8.840;2023-06-22T08:24:48;74906.03;;;-145.72;100.00
15914;BME280;8055;51.930;8.840;2023-06-22T08:27:14;74895.69;;;-145.72;100.00
15914;BME280;8055;51.930;8.840;2023-06-22T08:29:46;74885.34;;;-145.72;100.00
15914;BME280;8055;51.930;8.840;2023-06-22T08:32:12;74864.66;;;-145.72;100.00
15914;BME280;8055;51.930;8.840;2023-06-22T08:34:37;74833.63;;;-145.72;100.00
15914;BME280;8055;51.930;8.840;2023-06-22T08:37:08;74804.69;;;-145.72;100.00
15914;BME280;8055;51.930;8.840;2023-06-22T08:39:33;74784.00;;;-145.72;100.00
15914;BME280;8055;51.930;8.840;2023-06-22T08:41:59;74769.50;;;-145.72;100.00
15914;BME280;8055;51.930;8.840;2023-06-22T08:44:25;74752.97;;;-145.72;100.00
15914;BME280;8055;51.930;8.840;2023-06-22T08:46:50;74736.41;;;-145.72;100.00
15914;BME280;8055;51.930;8.840;2023-06-22T08:49:15;74728.13;;;-145.72;100.00
15914;BME280;8055;51.930;8.840;2023-06-22T08:51:41;74728.13;;;-145.72;100.00
15914;BME280;8055;51.930;8.840;2023-06-22T08:54:06;74713.66;;;-145.72;100.00
15914;BME280;8055;51.930;8.840;2023-06-22T08:56:32;74703.31;;;-145.72;100.00
15914;BME280;8055;51.930;8.840;2023-06-22T08:58:57;74705.38;;;-145.72;100.00
15914;BME280;8055;51.930;8.840;2023-06-22T09:01:22;74715.72;;;-145.72;100.00
15914;BME280;8055;51.930;8.840;2023-06-22T09:03:48;74719.88;;;-145.72;100.00
15914;BME280;8055;51.930;8.840;2023-06-22T09:06:20;74707.44;;;-145.72;100.00
15914;BME280;8055;51.930;8.840;2023-06-22T09:08:45;74703.31;;;-145.72;100.00
15914;BME280;8055;51.930;8.840;2023-06-22T09:11:12;74711.59;;;-145.72;100.00
15914;BME280;8055;51.930;8.840;2023-06-22T09:13:37;74699.19;;;-145.72;100.00
15914;BME280;8055;51.930;8.840;2023-06-22T09:16:03;74688.84;;;-145.72;100.00
15914;BME280;8055;51.930;8.840;2023-06-22T09:18:28;74690.91;;;-145.72;100.00
15914;BME280;8055;51.930;8.840;2023-06-22T09:20:53;74666.06;;;-145.72;100.00
15914;BME280;8055;51.930;8.840;2023-06-22T09:23:19;74664.00;;;-145.72;100.00
15914;BME280;8055;51.930;8.840;2023-06-22T09:25:44;74651.59;;;-145.72;100.00
15914;BME280;8055;51.930;8.840;2023-06-22T09:28:12;74637.13;;;-145.72;100.00
15914;BME280;8055;51.930;8.840;2023-06-22T09:30:37;74632.97;;;-145.72;100.00
15914;BME280;8055;51.930;8.840;2023-06-22T09:33:02;74616.44;;;-145.72;100.00
15914;BME280;8055;51.930;8.840;2023-06-22T09:35:28;74599.88;;;-145.72;100.00
15914;BME280;8055;51.930;8.840;2023-06-22T09:37:53;74591.59;;;-145.72;100.00
15914;BME280;8055;51.930;8.840;2023-06-22T09:40:18;74579.19;;;-145.72;100.00
15914;BME280;8055;51.930;8.840;2023-06-22T09:42:45;74570.91;;;-145.72;100.00
15914;BME280;8055;51.930;8.840;2023-06-22T09:45:10;74560.56;;;-145.72;100.00
15914;BME280;8055;51.930;8.840;2023-06-22T09:47:36;74544.03;;;-145.72;100.00
15914;BME280;8055;51.930;8.840;2023-06-22T09:50:02;74510.94;;;-145.72;100.00
15914;BME280;8055;51.930;8.840;2023-06-22T09:52:27;74473.69;;;-145.72;100.00
15914;BME280;8055;51.930;8.840;2023-06-22T09:54:52;74450.94;;;-145.72;100.00
15914;BME280;8055;51.930;8.840;2023-06-22T09:57:18;74399.22;;;-145.72;100.00
15914;BME280;8055;51.930;8.840;2023-06-22T09:59:43;74364.06;;;-145.72;100.00
15914;BME280;8055;51.930;8.840;2023-06-22T10:02:08;74345.44;;;-145.72;100.00
15914;BME280;8055;51.930;8.840;2023-06-22T10:04:40;74310.28;;;-145.72;100.00
15914;BME280;8055;51.930;8.840;2023-06-22T10:07:09;74297.88;;;-145.72;100.00
15914;BME280;8055;51.930;8.840;2023-06-22T10:09:34;74312.34;;;-145.72;100.00
15914;BME280;8055;51.930;8.840;2023-06-22T10:12:00;74283.41;;;-145.72;100.00
15914;BME280;8055;51.930;8.840;2023-06-22T10:14:25;74277.19;;;-145.72;100.00
15914;BME280;8055;51.930;8.840;2023-06-22T10:16:52;74246.16;;;-145.72;100.00
15914;BME280;8055;51.930;8.840;2023-06-22T10:19:18;74248.22;;;-145.72;100.00
15914;BME280;8055;51.930;8.840;2023-06-22T10:21:43;74237.88;;;-145.72;100.00
15914;BME280;8055;51.930;8.840;2023-06-22T10:24:09;74200.66;;;-145.72;100.00
15914;BME280;8055;51.930;8.840;2023-06-22T10:26:35;74192.38;;;-145.72;100.00
15914;BME280;8055;51.930;8.840;2023-06-22T10:29:02;74159.28;;;-145.72;100.00
15914;BME280;8055;51.930;8.840;2023-06-22T10:31:27;74148.94;;;-145.72;100.00
15914;BME280;8055;51.930;8.840;2023-06-22T10:33:54;74155.16;;;-145.72;100.00
15914;BME280;8055;51.930;8.840;2023-06-22T10:36:19;74165.50;;;-145.72;100.00
15914;BME280;8055;51.930;8.840;2023-06-22T10:38:45;74126.19;;;-145.72;100.00
15914;BME280;8055;51.930;8.840;2023-06-22T10:41:12;74113.78;;;-145.72;100.00
15914;BME280;8055;51.930;8.840;2023-06-22T10:43:38;74097.22;;;-145.72;98.01
15914;BME280;8055;51.930;8.840;2023-06-22T10:46:03;74060.00;;;-145.72;98.65
15914;BME280;8055;51.930;8.840;2023-06-22T10:48:28;74022.78;;;-145.72;95.29
15914;BME280;8055;51.930;8.840;2023-06-22T10:50:54;74020.72;;;-145.72;82.73
15914;BME280;8055;51.930;8.840;2023-06-22T10:53:20;74014.50;;;-145.72;83.79
15914;BME280;8055;51.930;8.840;2023-06-22T10:55:45;73985.53;;;-145.72;92.16
15914;BME280;8055;51.930;8.840;2023-06-22T10:58:10;73993.81;;;-145.72;80.64
15914;BME280;8055;51.930;8.840;2023-06-22T11:00:36;73987.63;;;-145.72;82.44
15914;BME280;8055;51.930;8.840;2023-06-22T11:03:02;74002.09;;;-145.72;79.42
15914;BME280;8055;51.930;8.840;2023-06-22T11:05:27;74012.44;;;-145.72;74.35
15914;BME280;8055;51.930;8.840;2023-06-22T11:07:52;74026.91;;;-145.72;75.95
15914;BME280;8055;51.930;8.840;2023-06-22T11:10:18;74047.59;;;-145.72;79.67
15914;BME280;8055;51.930;8.840;2023-06-22T11:12:43;74055.88;;;-145.72;82.11
15914;BME280;8055;51.930;8.840;2023-06-22T11:15:08;74078.63;;;-145.72;78.81
15914;BME280;8055;51.930;8.840;2023-06-22T11:17:35;74086.91;;;-145.72;81.58
15914;BME280;8055;51.930;8.840;2023-06-22T11:20:00;74095.16;;;-145.72;77.32
15914;BME280;8055;51.930;8.840;2023-06-22T11:22:26;74111.72;;;-145.72;84.84
15914;BME280;8055;51.930;8.840;2023-06-22T11:24:51;74115.84;;;-145.72;85.14
15914;BME280;8055;51.930;8.840;2023-06-22T11:27:17;74120.00;;;-145.72;85.08
15914;BME280;8055;51.930;8.840;2023-06-22T11:29:42;74128.25;;;-145.72;86.92
15914;BME280;8055;51.930;8.840;2023-06-22T11:32:08;74134.47;;;-145.72;90.19
15914;BME280;8055;51.930;8.840;2023-06-22T11:34:34;74134.47;;;-145.72;89.86
15914;BME280;8055;51.930;8.840;2023-06-22T11:37:00;74155.16;;;-145.72;91.10
15914;BME280;8055;51.930;8.840;2023-06-22T11:39:25;74161.34;;;-145.72;91.04
15914;BME280;8055;51.930;8.840;2023-06-22T11:41:50;74179.97;;;-145.72;91.55
15914;BME280;8055;51.930;8.840;2023-06-22T11:44:16;74179.97;;;-145.72;93.08
15914;BME280;8055;51.930;8.840;2023-06-22T11:46:41;74182.03;;;-145.72;96.45
15914;BME280;8055;51.930;8.840;2023-06-22T11:49:07;74198.59;;;-145.72;100.00
15914;BME280;8055;51.930;8.840;2023-06-22T11:51:32;74200.66;;;-145.72;100.00
15914;BME280;8055;51.930;8.840;2023-06-22T11:53:58;74206.84;;;-145.72;100.00
15914;BME280;8055;51.930;8.840;2023-06-22T11:56:24;74229.63;;;-145.72;100.00
15914;BME280;8055;51.930;8.840;2023-06-22T11:58:49;74223.41;;;-145.72;100.00
15914;BME280;8055;51.930;8.840;2023-06-22T12:01:14;74223.41;;;-145.72;100.00
15914;BME280;8055;51.930;8.840;2023-06-22T12:03:41;74242.03;;;-145.72;100.00
15914;BME280;8055;51.930;8.840;2023-06-22T12:06:08;74229.63;;;-145.72;100.00
15914;BME280;8055;51.930;8.840;2023-06-22T12:08:33;74211.00;;;-145.72;100.00
15914;BME280;8055;51.930;8.840;2023-06-22T12:10:59;74192.38;;;-145.72;100.00
15914;BME280;8055;51.930;8.840;2023-06-22T12:13:24;74177.91;;;-145.72;100.00
15914;BME280;8055;51.930;8.840;2023-06-22T12:15:49;74165.50;;;-145.72;100.00
15914;BME280;8055;51.930;8.840;2023-06-22T12:18:17;74132.41;;;-145.72;100.00
15914;BME280;8055;51.930;8.840;2023-06-22T12:20:45;74111.72;;;-145.72;100.00
15914;BME280;8055;51.930;8.840;2023-06-22T12:23:11;74105.50;;;-145.72;99.87
15914;BME280;8055;51.930;8.840;2023-06-22T12:25:36;74099.31;;;-145.72;100.00
15914;BME280;8055;51.930;8.840;2023-06-22T12:28:01;74101.38;;;-145.72;100.00
15914;BME280;8055;51.930;8.840;2023-06-22T12:30:27;74107.56;;;-145.72;100.00
15914;BME280;8055;51.930;8.840;2023-06-22T12:32:53;74126.19;;;-145.72;92.54
15914;BME280;8055;51.930;8.840;2023-06-22T12:35:18;74153.09;;;-145.72;96.09
15914;BME280;8055;51.930;8.840;2023-06-22T12:37:44;74179.97;;;-145.72;93.62